sensor_id;sensor_type;location;lat;lon;timestamp;P1;durP1;ratioP1;P2;durP2;ratioP2
17618;SDS011;8928;51.678;6.074;2022-08-14T00:02:44;11.68;;;5.40;;
17618;SDS011;8928;51.678;6.074;2022-08-14T00:05:32;9.60;;;4.93;;
17618;SDS011;8928;51.678;6.074;2022-08-14T00:08:20;8.43;;;5.30;;
17618;SDS011;8928;51.678;6.074;2022-08-14T00:11:07;13.18;;;5.47;;
17618;SDS011;8928;51.678;6.074;2022-08-14T00:13:55;8.02;;;5.18;;
17618;SDS011;8928;51.678;6.074;2022-08-14T00:16:42;6.90;;;5.13;;
17618;SDS011;8928;51.678;6.074;2022-08-14T00:19:29;9.30;;;5.20;;
17618;SDS011;8928;51.678;6.074;2022-08-14T00:22:16;9.23;;;4.90;;
17618;SDS011;8928;51.678;6.074;2022-08-14T00:25:06;8.98;;;4.82;;
17618;SDS011;8928;51.678;6.074;2022-08-14T00:27:54;6.95;;;5.03;;
17618;SDS011;8928;51.678;6.074;2022-08-14T00:30:41;14.05;;;5.32;;
17618;SDS011;8928;51.678;6.074;2022-08-14T00:33:28;11.10;;;4.80;;
17618;SDS011;8928;51.678;6.074;2022-08-14T00:36:17;8.55;;;4.80;;
17618;SDS011;8928;51.678;6.074;2022-08-14T00:39:04;8.18;;;4.97;;
17618;SDS011;8928;51.678;6.074;2022-08-14T00:41:52;8.35;;;4.82;;
17618;SDS011;8928;51.678;6.074;2022-08-14T00:44:41;10.13;;;5.55;;
17618;SDS011;8928;51.678;6.074;2022-08-14T00:47:28;8.68;;;5.13;;
17618;SDS011;8928;51.678;6.074;2022-08-14T00:50:16;9.18;;;5.00;;
17618;SDS011;8928;51.678;6.074;2022-08-14T00:53:05;7.30;;;5.25;;
17618;SDS011;8928;51.678;6.074;2022-08-14T00:55:54;7.93;;;5.00;;
17618;SDS011;8928;51.678;6.074;2022-08-14T00:58:43;6.68;;;5.00;;
17618;SDS011;8928;51.678;6.074;2022-08-14T01:01:31;11.48;;;5.35;;
17618;SDS011;8928;51.678;6.074;2022-08-14T01:04:20;7.00;;;5.47;;
17618;SDS011;8928;51.678;6.074;2022-08-14T01:07:08;13.02;;;5.22;;
17618;SDS011;8928;51.678;6.074;2022-08-14T01:09:57;10.27;;;5.43;;
17618;SDS011;8928;51.678;6.074;2022-08-14T01:12:46;10.60;;;5.63;;
17618;SDS011;8928;51.678;6.074;2022-08-14T01:15:35;10.27;;;5.35;;
17618;SDS011;8928;51.678;6.074;2022-08-14T01:18:23;10.60;;;5.70;;
17618;SDS011;8928;51.678;6.074;2022-08-14T01:21:30;7.97;;;5.27;;
17618;SDS011;8928;51.678;6.074;2022-08-14T01:24:18;9.83;;;5.53;;
17618;SDS011;8928;51.678;6.074;2022-08-14T01:27:06;9.00;;;5.65;;
17618;SDS011;8928;51.678;6.074;2022-08-14T01:29:54;8.75;;;5.57;;
17618;SDS011;8928;51.678;6.074;2022-08-14T01:32:43;8.75;;;5.78;;
17618;SDS011;8928;51.678;6.074;2022-08-14T01:35:30;7.50;;;5.27;;
17618;SDS011;8928;51.678;6.074;2022-08-14T01:38:18;7.80;;;5.73;;
17618;SDS011;8928;51.678;6.074;2022-08-14T01:41:08;6.37;;;5.50;;
17618;SDS011;8928;51.678;6.074;2022-08-14T01:43:57;7.43;;;6.00;;
17618;SDS011;8928;51.678;6.074;2022-08-14T01:46:46;8.60;;;5.77;;
17618;SDS011;8928;51.678;6.074;2022-08-14T01:49:35;7.90;;;5.93;;
17618;SDS011;8928;51.678;6.074;2022-08-14T01:52:22;9.27;;;5.70;;
17618;SDS011;8928;51.678;6.074;2022-08-14T01:55:11;8.30;;;5.87;;
17618;SDS011;8928;51.678;6.074;2022-08-14T01:57:59;11.07;;;5.50;;
17618;SDS011;8928;51.678;6.074;2022-08-14T02:00:47;7.80;;;6.27;;
17618;SDS011;8928;51.678;6.074;2022-08-14T02:03:38;8.23;;;5.80;;
17618;SDS011;8928;51.678;6.074;2022-08-14T02:06:26;11.43;;;6.10;;
17618;SDS011;8928;51.678;6.074;2022-08-14T02:09:13;10.40;;;6.20;;
17618;SDS011;8928;51.678;6.074;2022-08-14T02:12:02;11.40;;;6.20;;
17618;SDS011;8928;51.678;6.074;2022-08-14T02:14:51;11.27;;;6.30;;
17618;SDS011;8928;51.678;6.074;2022-08-14T02:17:38;11.73;;;6.80;;
17618;SDS011;8928;51.678;6.074;2022-08-14T02:20:27;9.03;;;6.47;;
17618;SDS011;8928;51.678;6.074;2022-08-14T02:23:18;13.20;;;7.03;;
17618;SDS011;8928;51.678;6.074;2022-08-14T02:26:12;11.37;;;6.23;;
17618;SDS011;8928;51.678;6.074;2022-08-14T02:29:05;11.43;;;6.73;;
17618;SDS011;8928;51.678;6.074;2022-08-14T02:31:54;11.23;;;7.00;;
17618;SDS011;8928;51.678;6.074;2022-08-14T02:34:43;11.17;;;6.60;;
17618;SDS011;8928;51.678;6.074;2022-08-14T02:37:30;7.83;;;6.50;;
17618;SDS011;8928;51.678;6.074;2022-08-14T02:40:17;11.00;;;6.73;;
17618;SDS011;8928;51.678;6.074;2022-08-14T02:43:06;8.87;;;6.80;;
17618;SDS011;8928;51.678;6.074;2022-08-14T02:45:55;14.30;;;7.17;;
17618;SDS011;8928;51.678;6.074;2022-08-14T02:48:42;11.87;;;7.07;;
17618;SDS011;8928;51.678;6.074;2022-08-14T02:51:29;10.50;;;7.07;;
17618;SDS011;8928;51.678;6.074;2022-08-14T02:54:16;15.23;;;7.30;;
17618;SDS011;8928;51.678;6.074;2022-08-14T02:57:04;9.53;;;7.53;;
17618;SDS011;8928;51.678;6.074;2022-08-14T02:59:51;11.77;;;7.30;;
17618;SDS011;8928;51.678;6.074;2022-08-14T03:02:41;9.90;;;7.20;;
17618;SDS011;8928;51.678;6.074;2022-08-14T03:05:28;10.73;;;7.37;;
17618;SDS011;8928;51.678;6.074;2022-08-14T03:08:16;10.07;;;7.17;;
17618;SDS011;8928;51.678;6.074;2022-08-14T03:11:04;10.03;;;7.57;;
17618;SDS011;8928;51.678;6.074;2022-08-14T03:13:53;9.90;;;7.60;;
17618;SDS011;8928;51.678;6.074;2022-08-14T03:16:40;9.77;;;7.37;;
17618;SDS011;8928;51.678;6.074;2022-08-14T03:19:31;12.47;;;7.63;;
17618;SDS011;8928;51.678;6.074;2022-08-14T03:22:18;9.50;;;7.90;;
17618;SDS011;8928;51.678;6.074;2022-08-14T03:25:05;12.53;;;8.27;;
17618;SDS011;8928;51.678;6.074;2022-08-14T03:27:53;13.30;;;7.80;;
17618;SDS011;8928;51.678;6.074;2022-08-14T03:30:40;9.40;;;7.90;;
17618;SDS011;8928;51.678;6.074;2022-08-14T03:33:27;11.23;;;7.83;;
17618;SDS011;8928;51.678;6.074;2022-08-14T03:36:16;10.27;;;8.13;;
17618;SDS011;8928;51.678;6.074;2022-08-14T03:39:07;11.37;;;7.87;;
17618;SDS011;8928;51.678;6.074;2022-08-14T03:41:55;11.83;;;7.97;;
17618;SDS011;8928;51.678;6.074;2022-08-14T03:44:43;11.70;;;8.40;;
17618;SDS011;8928;51.678;6.074;2022-08-14T03:47:30;9.50;;;7.97;;
17618;SDS011;8928;51.678;6.074;2022-08-14T03:50:21;11.93;;;8.00;;
17618;SDS011;8928;51.678;6.074;2022-08-14T03:53:09;13.37;;;8.50;;
17618;SDS011;8928;51.678;6.074;2022-08-14T03:55:58;12.53;;;8.30;;
17618;SDS011;8928;51.678;6.074;2022-08-14T03:58:46;12.90;;;8.50;;
17618;SDS011;8928;51.678;6.074;2022-08-14T04:01:35;12.77;;;9.03;;
17618;SDS011;8928;51.678;6.074;2022-08-14T04:04:23;11.70;;;8.47;;
17618;SDS011;8928;51.678;6.074;2022-08-14T04:07:10;16.17;;;9.10;;
17618;SDS011;8928;51.678;6.074;2022-08-14T04:09:59;11.97;;;9.10;;
17618;SDS011;8928;51.678;6.074;2022-08-14T04:12:46;10.57;;;9.00;;
17618;SDS011;8928;51.678;6.074;2022-08-14T04:15:33;15.83;;;9.40;;
17618;SDS011;8928;51.678;6.074;2022-08-14T04:18:21;13.47;;;9.30;;
17618;SDS011;8928;51.678;6.074;2022-08-14T04:21:08;15.97;;;9.80;;
17618;SDS011;8928;51.678;6.074;2022-08-14T04:23:56;14.30;;;9.23;;
17618;SDS011;8928;51.678;6.074;2022-08-14T04:26:46;12.27;;;9.40;;
17618;SDS011;8928;51.678;6.074;2022-08-14T04:29:34;14.77;;;9.70;;
17618;SDS011;8928;51.678;6.074;2022-08-14T04:32:23;12.43;;;9.27;;
17618;SDS011;8928;51.678;6.074;2022-08-14T04:35:11;13.70;;;9.33;;
17618;SDS011;8928;51.678;6.074;2022-08-14T04:37:58;13.33;;;9.77;;
17618;SDS011;8928;51.678;6.074;2022-08-14T04:41:03;14.40;;;9.40;;
17618;SDS011;8928;51.678;6.074;2022-08-14T04:44:08;13.60;;;9.27;;
17618;SDS011;8928;51.678;6.074;2022-08-14T04:46:56;14.20;;;9.00;;
17618;SDS011;8928;51.678;6.074;2022-08-14T04:50:05;12.27;;;9.27;;
17618;SDS011;8928;51.678;6.074;2022-08-14T04:52:53;11.43;;;9.00;;
17618;SDS011;8928;51.678;6.074;2022-08-14T04:55:41;13.27;;;9.40;;
17618;SDS011;8928;51.678;6.074;2022-08-14T04:58:32;11.80;;;9.10;;
17618;SDS011;8928;51.678;6.074;2022-08-14T05:01:22;11.40;;;9.40;;
17618;SDS011;8928;51.678;6.074;2022-08-14T05:04:10;16.00;;;10.00;;
17618;SDS011;8928;51.678;6.074;2022-08-14T05:06:57;12.90;;;9.20;;
17618;SDS011;8928;51.678;6.074;2022-08-14T05:09:44;16.53;;;10.10;;
17618;SDS011;8928;51.678;6.074;2022-08-14T05:12:31;16.53;;;10.20;;
17618;SDS011;8928;51.678;6.074;2022-08-14T05:15:18;17.70;;;10.67;;
17618;SDS011;8928;51.678;6.074;2022-08-14T05:18:09;17.10;;;10.10;;
17618;SDS011;8928;51.678;6.074;2022-08-14T05:20:58;16.07;;;10.10;;
17618;SDS011;8928;51.678;6.074;2022-08-14T05:23:47;12.93;;;9.80;;
17618;SDS011;8928;51.678;6.074;2022-08-14T05:26:36;16.97;;;10.43;;
17618;SDS011;8928;51.678;6.074;2022-08-14T05:29:25;13.00;;;10.23;;
17618;SDS011;8928;51.678;6.074;2022-08-14T05:32:13;16.93;;;10.30;;
17618;SDS011;8928;51.678;6.074;2022-08-14T05:35:02;14.73;;;10.60;;
17618;SDS011;8928;51.678;6.074;2022-08-14T05:37:49;13.83;;;10.53;;
17618;SDS011;8928;51.678;6.074;2022-08-14T05:40:37;18.60;;;11.27;;
17618;SDS011;8928;51.678;6.074;2022-08-14T05:43:24;15.40;;;10.57;;
17618;SDS011;8928;51.678;6.074;2022-08-14T05:46:12;15.40;;;11.33;;
17618;SDS011;8928;51.678;6.074;2022-08-14T05:49:02;16.47;;;10.70;;
17618;SDS011;8928;51.678;6.074;2022-08-14T05:51:51;16.17;;;11.00;;
17618;SDS011;8928;51.678;6.074;2022-08-14T05:54:38;18.17;;;10.97;;
17618;SDS011;8928;51.678;6.074;2022-08-14T05:57:25;15.73;;;10.60;;
17618;SDS011;8928;51.678;6.074;2022-08-14T06:00:12;16.80;;;10.97;;
17618;SDS011;8928;51.678;6.074;2022-08-14T06:03:01;13.00;;;10.57;;
17618;SDS011;8928;51.678;6.074;2022-08-14T06:05:50;15.68;;;10.80;;
17618;SDS011;8928;51.678;6.074;2022-08-14T06:08:40;14.50;;;10.00;;
17618;SDS011;8928;51.678;6.074;2022-08-14T06:11:27;16.33;;;9.93;;
17618;SDS011;8928;51.678;6.074;2022-08-14T06:14:14;18.02;;;9.85;;
17618;SDS011;8928;51.678;6.074;2022-08-14T06:17:01;13.52;;;9.88;;
17618;SDS011;8928;51.678;6.074;2022-08-14T06:19:49;14.27;;;9.55;;
17618;SDS011;8928;51.678;6.074;2022-08-14T06:22:36;13.90;;;9.32;;
17618;SDS011;8928;51.678;6.074;2022-08-14T06:25:24;12.32;;;9.20;;
17618;SDS011;8928;51.678;6.074;2022-08-14T06:28:14;16.38;;;9.35;;
17618;SDS011;8928;51.678;6.074;2022-08-14T06:31:02;15.68;;;8.60;;
17618;SDS011;8928;51.678;6.074;2022-08-14T06:33:50;13.48;;;8.55;;
17618;SDS011;8928;51.678;6.074;2022-08-14T06:36:37;13.48;;;8.45;;
17618;SDS011;8928;51.678;6.074;2022-08-14T06:39:24;15.90;;;8.18;;
17618;SDS011;8928;51.678;6.074;2022-08-14T06:42:13;18.10;;;8.50;;
17618;SDS011;8928;51.678;6.074;2022-08-14T06:45:00;19.25;;;9.25;;
17618;SDS011;8928;51.678;6.074;2022-08-14T06:47:47;11.90;;;8.20;;
17618;SDS011;8928;51.678;6.074;2022-08-14T06:50:34;14.63;;;8.57;;
17618;SDS011;8928;51.678;6.074;2022-08-14T06:53:21;12.70;;;8.30;;
17618;SDS011;8928;51.678;6.074;2022-08-14T06:56:08;14.20;;;8.10;;
17618;SDS011;8928;51.678;6.074;2022-08-14T06:58:57;15.85;;;8.57;;
17618;SDS011;8928;51.678;6.074;2022-08-14T07:01:44;13.80;;;8.02;;
17618;SDS011;8928;51.678;6.074;2022-08-14T07:04:48;14.55;;;7.70;;
17618;SDS011;8928;51.678;6.074;2022-08-14T07:07:53;12.82;;;7.50;;
17618;SDS011;8928;51.678;6.074;2022-08-14T07:10:40;13.27;;;8.02;;
17618;SDS011;8928;51.678;6.074;2022-08-14T07:13:28;11.02;;;7.80;;
17618;SDS011;8928;51.678;6.074;2022-08-14T07:16:16;12.07;;;7.80;;
17618;SDS011;8928;51.678;6.074;2022-08-14T07:19:03;11.77;;;7.93;;
17618;SDS011;8928;51.678;6.074;2022-08-14T07:21:53;10.80;;;7.78;;
17618;SDS011;8928;51.678;6.074;2022-08-14T07:24:41;13.18;;;7.28;;
17618;SDS011;8928;51.678;6.074;2022-08-14T07:27:28;12.63;;;7.78;;
17618;SDS011;8928;51.678;6.074;2022-08-14T07:30:15;10.60;;;7.72;;
17618;SDS011;8928;51.678;6.074;2022-08-14T07:33:04;13.63;;;7.45;;
17618;SDS011;8928;51.678;6.074;2022-08-14T07:35:52;12.93;;;7.70;;
17618;SDS011;8928;51.678;6.074;2022-08-14T07:38:40;10.32;;;7.43;;
17618;SDS011;8928;51.678;6.074;2022-08-14T07:41:28;11.55;;;7.30;;
17618;SDS011;8928;51.678;6.074;2022-08-14T07:44:15;13.50;;;7.35;;
17618;SDS011;8928;51.678;6.074;2022-08-14T07:47:02;9.15;;;7.53;;
17618;SDS011;8928;51.678;6.074;2022-08-14T07:49:53;10.95;;;7.57;;
17618;SDS011;8928;51.678;6.074;2022-08-14T07:52:46;14.88;;;7.90;;
17618;SDS011;8928;51.678;6.074;2022-08-14T07:55:34;12.77;;;7.88;;
17618;SDS011;8928;51.678;6.074;2022-08-14T07:58:21;10.88;;;7.45;;
17618;SDS011;8928;51.678;6.074;2022-08-14T08:01:08;9.43;;;7.75;;
17618;SDS011;8928;51.678;6.074;2022-08-14T08:03:57;10.90;;;7.60;;
17618;SDS011;8928;51.678;6.074;2022-08-14T08:06:46;16.02;;;7.57;;
17618;SDS011;8928;51.678;6.074;2022-08-14T08:09:33;12.48;;;7.65;;
17618;SDS011;8928;51.678;6.074;2022-08-14T08:12:22;15.25;;;7.95;;
17618;SDS011;8928;51.678;6.074;2022-08-14T08:15:10;12.35;;;7.85;;
17618;SDS011;8928;51.678;6.074;2022-08-14T08:17:58;10.07;;;8.07;;
17618;SDS011;8928;51.678;6.074;2022-08-14T08:20:48;13.55;;;7.53;;
17618;SDS011;8928;51.678;6.074;2022-08-14T08:23:37;15.60;;;7.35;;
17618;SDS011;8928;51.678;6.074;2022-08-14T08:26:27;13.60;;;7.95;;
17618;SDS011;8928;51.678;6.074;2022-08-14T08:29:17;13.25;;;7.70;;
17618;SDS011;8928;51.678;6.074;2022-08-14T08:32:05;12.95;;;7.18;;
17618;SDS011;8928;51.678;6.074;2022-08-14T08:34:52;11.88;;;7.25;;
17618;SDS011;8928;51.678;6.074;2022-08-14T08:37:39;11.95;;;7.57;;
17618;SDS011;8928;51.678;6.074;2022-08-14T08:40:29;9.77;;;7.18;;
17618;SDS011;8928;51.678;6.074;2022-08-14T08:43:21;13.57;;;7.50;;
17618;SDS011;8928;51.678;6.074;2022-08-14T08:46:10;12.95;;;7.05;;
17618;SDS011;8928;51.678;6.074;2022-08-14T08:48:59;9.82;;;7.22;;
17618;SDS011;8928;51.678;6.074;2022-08-14T08:51:46;10.88;;;7.32;;
17618;SDS011;8928;51.678;6.074;2022-08-14T08:54:34;12.07;;;7.22;;
17618;SDS011;8928;51.678;6.074;2022-08-14T08:57:23;9.45;;;6.68;;
17618;SDS011;8928;51.678;6.074;2022-08-14T09:00:11;9.88;;;7.05;;
17618;SDS011;8928;51.678;6.074;2022-08-14T09:03:03;11.00;;;7.10;;
17618;SDS011;8928;51.678;6.074;2022-08-14T09:05:53;13.88;;;6.90;;
17618;SDS011;8928;51.678;6.074;2022-08-14T09:08:44;13.93;;;6.78;;
17618;SDS011;8928;51.678;6.074;2022-08-14T09:11:31;10.40;;;6.97;;
17618;SDS011;8928;51.678;6.074;2022-08-14T09:14:20;10.55;;;6.75;;
17618;SDS011;8928;51.678;6.074;2022-08-14T09:17:08;12.20;;;7.00;;
17618;SDS011;8928;51.678;6.074;2022-08-14T09:19:55;9.95;;;6.82;;
17618;SDS011;8928;51.678;6.074;2022-08-14T09:22:43;10.60;;;6.45;;
17618;SDS011;8928;51.678;6.074;2022-08-14T09:25:32;7.75;;;6.65;;
17618;SDS011;8928;51.678;6.074;2022-08-14T09:28:20;10.85;;;6.93;;
17618;SDS011;8928;51.678;6.074;2022-08-14T09:31:09;10.07;;;6.35;;
17618;SDS011;8928;51.678;6.074;2022-08-14T09:34:06;11.57;;;6.45;;
17618;SDS011;8928;51.678;6.074;2022-08-14T09:37:07;8.35;;;6.78;;
17618;SDS011;8928;51.678;6.074;2022-08-14T09:40:07;10.23;;;6.40;;
17618;SDS011;8928;51.678;6.074;2022-08-14T09:43:06;11.32;;;6.57;;
17618;SDS011;8928;51.678;6.074;2022-08-14T09:46:10;12.52;;;6.65;;
17618;SDS011;8928;51.678;6.074;2022-08-14T09:48:58;17.20;;;6.43;;
17618;SDS011;8928;51.678;6.074;2022-08-14T09:51:45;14.45;;;6.68;;
17618;SDS011;8928;51.678;6.074;2022-08-14T09:54:35;9.45;;;6.40;;
17618;SDS011;8928;51.678;6.074;2022-08-14T09:57:24;9.23;;;6.03;;
17618;SDS011;8928;51.678;6.074;2022-08-14T10:00:15;8.85;;;5.53;;
17618;SDS011;8928;51.678;6.074;2022-08-14T10:03:05;10.18;;;5.95;;
17618;SDS011;8928;51.678;6.074;2022-08-14T10:06:02;10.32;;;6.03;;
17618;SDS011;8928;51.678;6.074;2022-08-14T10:08:52;11.45;;;6.50;;
17618;SDS011;8928;51.678;6.074;2022-08-14T10:11:52;7.93;;;6.00;;
17618;SDS011;8928;51.678;6.074;2022-08-14T10:14:41;10.38;;;6.20;;
17618;SDS011;8928;51.678;6.074;2022-08-14T10:17:28;9.80;;;6.00;;
17618;SDS011;8928;51.678;6.074;2022-08-14T10:20:16;12.18;;;5.28;;
17618;SDS011;8928;51.678;6.074;2022-08-14T10:23:13;12.73;;;5.88;;
17618;SDS011;8928;51.678;6.074;2022-08-14T10:26:03;5.88;;;4.93;;
17618;SDS011;8928;51.678;6.074;2022-08-14T10:28:52;8.98;;;5.45;;
17618;SDS011;8928;51.678;6.074;2022-08-14T10:31:40;6.53;;;5.00;;
17618;SDS011;8928;51.678;6.074;2022-08-14T10:34:32;8.73;;;5.30;;
17618;SDS011;8928;51.678;6.074;2022-08-14T10:37:21;8.65;;;4.85;;
17618;SDS011;8928;51.678;6.074;2022-08-14T10:40:08;5.20;;;4.40;;
17618;SDS011;8928;51.678;6.074;2022-08-14T10:42:57;9.05;;;4.82;;
17618;SDS011;8928;51.678;6.074;2022-08-14T10:45:51;8.50;;;4.93;;
17618;SDS011;8928;51.678;6.074;2022-08-14T10:48:40;7.03;;;4.57;;
17618;SDS011;8928;51.678;6.074;2022-08-14T10:51:28;6.35;;;4.45;;
17618;SDS011;8928;51.678;6.074;2022-08-14T10:54:27;7.57;;;4.93;;
17618;SDS011;8928;51.678;6.074;2022-08-14T10:57:18;7.20;;;4.90;;
17618;SDS011;8928;51.678;6.074;2022-08-14T11:00:10;7.60;;;4.80;;
17618;SDS011;8928;51.678;6.074;2022-08-14T11:03:02;8.02;;;4.78;;
17618;SDS011;8928;51.678;6.074;2022-08-14T11:05:52;8.73;;;5.07;;
17618;SDS011;8928;51.678;6.074;2022-08-14T11:08:39;8.98;;;4.65;;
17618;SDS011;8928;51.678;6.074;2022-08-14T11:11:27;5.20;;;4.55;;
17618;SDS011;8928;51.678;6.074;2022-08-14T11:14:15;6.63;;;4.85;;
17618;SDS011;8928;51.678;6.074;2022-08-14T11:17:02;6.82;;;4.70;;
17618;SDS011;8928;51.678;6.074;2022-08-14T11:19:49;6.18;;;4.75;;
17618;SDS011;8928;51.678;6.074;2022-08-14T11:22:40;6.75;;;4.68;;
17618;SDS011;8928;51.678;6.074;2022-08-14T11:25:28;6.22;;;4.72;;
17618;SDS011;8928;51.678;6.074;2022-08-14T11:28:18;7.97;;;4.20;;
17618;SDS011;8928;51.678;6.074;2022-08-14T11:31:10;6.75;;;4.65;;
17618;SDS011;8928;51.678;6.074;2022-08-14T11:33:58;9.07;;;4.95;;
17618;SDS011;8928;51.678;6.074;2022-08-14T11:36:45;7.82;;;4.80;;
17618;SDS011;8928;51.678;6.074;2022-08-14T11:39:32;6.50;;;4.60;;
17618;SDS011;8928;51.678;6.074;2022-08-14T11:42:20;5.95;;;4.20;;
17618;SDS011;8928;51.678;6.074;2022-08-14T11:45:10;8.57;;;4.38;;
17618;SDS011;8928;51.678;6.074;2022-08-14T11:47:57;5.03;;;4.47;;
17618;SDS011;8928;51.678;6.074;2022-08-14T11:50:47;6.10;;;4.28;;
17618;SDS011;8928;51.678;6.074;2022-08-14T11:53:34;5.75;;;4.60;;
17618;SDS011;8928;51.678;6.074;2022-08-14T11:56:22;5.13;;;4.53;;
17618;SDS011;8928;51.678;6.074;2022-08-14T11:59:14;5.13;;;4.30;;
17618;SDS011;8928;51.678;6.074;2022-08-14T12:02:11;5.65;;;4.10;;
17618;SDS011;8928;51.678;6.074;2022-08-14T12:04:59;6.20;;;4.15;;
17618;SDS011;8928;51.678;6.074;2022-08-14T12:07:50;6.00;;;4.38;;
17618;SDS011;8928;51.678;6.074;2022-08-14T12:10:40;5.30;;;4.18;;
17618;SDS011;8928;51.678;6.074;2022-08-14T12:13:29;6.50;;;4.13;;
17618;SDS011;8928;51.678;6.074;2022-08-14T12:16:18;6.55;;;4.45;;
17618;SDS011;8928;51.678;6.074;2022-08-14T12:19:07;5.05;;;4.50;;
17618;SDS011;8928;51.678;6.074;2022-08-14T12:21:54;7.32;;;4.40;;
17618;SDS011;8928;51.678;6.074;2022-08-14T12:24:42;6.50;;;4.18;;
17618;SDS011;8928;51.678;6.074;2022-08-14T12:27:36;4.50;;;4.10;;
17618;SDS011;8928;51.678;6.074;2022-08-14T12:30:25;6.15;;;4.15;;
17618;SDS011;8928;51.678;6.074;2022-08-14T12:33:20;6.78;;;4.28;;
17618;SDS011;8928;51.678;6.074;2022-08-14T12:36:19;5.65;;;4.30;;
17618;SDS011;8928;51.678;6.074;2022-08-14T12:39:15;6.75;;;4.07;;
17618;SDS011;8928;51.678;6.074;2022-08-14T12:42:04;7.32;;;4.50;;
17618;SDS011;8928;51.678;6.074;2022-08-14T12:44:51;5.45;;;4.32;;
17618;SDS011;8928;51.678;6.074;2022-08-14T12:47:43;4.55;;;4.15;;
17618;SDS011;8928;51.678;6.074;2022-08-14T12:50:34;8.18;;;4.60;;
17618;SDS011;8928;51.678;6.074;2022-08-14T12:53:33;4.93;;;4.40;;
17618;SDS011;8928;51.678;6.074;2022-08-14T12:56:23;6.07;;;4.57;;
17618;SDS011;8928;51.678;6.074;2022-08-14T12:59:11;8.25;;;4.57;;
17618;SDS011;8928;51.678;6.074;2022-08-14T13:01:59;5.00;;;4.50;;
17618;SDS011;8928;51.678;6.074;2022-08-14T13:04:48;5.90;;;4.47;;
17618;SDS011;8928;51.678;6.074;2022-08-14T13:07:36;4.60;;;4.20;;
17618;SDS011;8928;51.678;6.074;2022-08-14T13:10:26;5.00;;;4.43;;
17618;SDS011;8928;51.678;6.074;2022-08-14T13:13:18;6.38;;;4.40;;
17618;SDS011;8928;51.678;6.074;2022-08-14T13:16:05;4.97;;;4.20;;
17618;SDS011;8928;51.678;6.074;2022-08-14T13:18:53;9.02;;;4.53;;
17618;SDS011;8928;51.678;6.074;2022-08-14T13:21:46;5.97;;;4.50;;
17618;SDS011;8928;51.678;6.074;2022-08-14T13:24:34;7.63;;;4.50;;
17618;SDS011;8928;51.678;6.074;2022-08-14T13:27:25;6.95;;;4.80;;
17618;SDS011;8928;51.678;6.074;2022-08-14T13:30:12;5.07;;;4.57;;
17618;SDS011;8928;51.678;6.074;2022-08-14T13:33:01;12.32;;;4.80;;
17618;SDS011;8928;51.678;6.074;2022-08-14T13:35:50;6.88;;;4.60;;
17618;SDS011;8928;51.678;6.074;2022-08-14T13:38:37;4.97;;;4.40;;
17618;SDS011;8928;51.678;6.074;2022-08-14T13:41:26;5.03;;;4.35;;
17618;SDS011;8928;51.678;6.074;2022-08-14T13:44:15;5.53;;;4.18;;
17618;SDS011;8928;51.678;6.074;2022-08-14T13:47:05;6.57;;;4.20;;
17618;SDS011;8928;51.678;6.074;2022-08-14T13:49:52;6.30;;;4.25;;
17618;SDS011;8928;51.678;6.074;2022-08-14T13:52:40;5.93;;;4.60;;
17618;SDS011;8928;51.678;6.074;2022-08-14T13:55:28;6.97;;;4.50;;
17618;SDS011;8928;51.678;6.074;2022-08-14T13:58:16;7.43;;;4.60;;
17618;SDS011;8928;51.678;6.074;2022-08-14T14:01:07;5.72;;;4.15;;
17618;SDS011;8928;51.678;6.074;2022-08-14T14:03:55;5.85;;;4.45;;
17618;SDS011;8928;51.678;6.074;2022-08-14T14:06:42;4.95;;;4.55;;
17618;SDS011;8928;51.678;6.074;2022-08-14T14:09:32;6.70;;;4.80;;
17618;SDS011;8928;51.678;6.074;2022-08-14T14:12:21;6.45;;;4.70;;
17618;SDS011;8928;51.678;6.074;2022-08-14T14:15:10;5.80;;;4.55;;
17618;SDS011;8928;51.678;6.074;2022-08-14T14:18:00;6.70;;;4.57;;
17618;SDS011;8928;51.678;6.074;2022-08-14T14:20:47;7.05;;;4.63;;
17618;SDS011;8928;51.678;6.074;2022-08-14T14:23:36;8.40;;;4.40;;
17618;SDS011;8928;51.678;6.074;2022-08-14T14:26:24;4.50;;;4.10;;
17618;SDS011;8928;51.678;6.074;2022-08-14T14:29:12;5.90;;;4.30;;
17618;SDS011;8928;51.678;6.074;2022-08-14T14:32:00;7.97;;;4.90;;
17618;SDS011;8928;51.678;6.074;2022-08-14T14:34:49;7.82;;;4.50;;
17618;SDS011;8928;51.678;6.074;2022-08-14T14:37:40;9.00;;;4.90;;
17618;SDS011;8928;51.678;6.074;2022-08-14T14:40:29;5.38;;;4.28;;
17618;SDS011;8928;51.678;6.074;2022-08-14T14:45:50;7.90;;;4.68;;
17618;SDS011;8928;51.678;6.074;2022-08-14T14:48:40;5.28;;;4.45;;
17618;SDS011;8928;51.678;6.074;2022-08-14T14:51:30;9.32;;;4.60;;
17618;SDS011;8928;51.678;6.074;2022-08-14T14:54:19;5.35;;;4.25;;
17618;SDS011;8928;51.678;6.074;2022-08-14T14:57:08;6.40;;;4.63;;
17618;SDS011;8928;51.678;6.074;2022-08-14T14:59:58;6.15;;;4.35;;
17618;SDS011;8928;51.678;6.074;2022-08-14T15:02:46;6.60;;;4.55;;
17618;SDS011;8928;51.678;6.074;2022-08-14T15:05:34;7.45;;;4.68;;
17618;SDS011;8928;51.678;6.074;2022-08-14T15:08:23;5.78;;;4.68;;
17618;SDS011;8928;51.678;6.074;2022-08-14T15:11:11;7.10;;;4.70;;
17618;SDS011;8928;51.678;6.074;2022-08-14T15:13:58;7.32;;;4.55;;
17618;SDS011;8928;51.678;6.074;2022-08-14T15:16:46;6.35;;;4.57;;
17618;SDS011;8928;51.678;6.074;2022-08-14T15:19:33;6.07;;;4.72;;
17618;SDS011;8928;51.678;6.074;2022-08-14T15:22:20;5.20;;;4.70;;
17618;SDS011;8928;51.678;6.074;2022-08-14T15:25:10;5.78;;;4.53;;
17618;SDS011;8928;51.678;6.074;2022-08-14T15:27:59;7.47;;;4.50;;
17618;SDS011;8928;51.678;6.074;2022-08-14T15:30:46;5.20;;;4.70;;
17618;SDS011;8928;51.678;6.074;2022-08-14T15:33:34;6.18;;;4.63;;
17618;SDS011;8928;51.678;6.074;2022-08-14T15:36:39;5.55;;;4.95;;
17618;SDS011;8928;51.678;6.074;2022-08-14T15:39:28;6.82;;;4.63;;
17618;SDS011;8928;51.678;6.074;2022-08-14T15:42:17;8.05;;;4.82;;
17618;SDS011;8928;51.678;6.074;2022-08-14T15:45:05;5.40;;;4.57;;
17618;SDS011;8928;51.678;6.074;2022-08-14T15:47:54;5.05;;;4.55;;
17618;SDS011;8928;51.678;6.074;2022-08-14T15:50:41;6.20;;;4.75;;
17618;SDS011;8928;51.678;6.074;2022-08-14T15:53:29;8.05;;;4.50;;
17618;SDS011;8928;51.678;6.074;2022-08-14T15:56:16;6.22;;;4.88;;
17618;SDS011;8928;51.678;6.074;2022-08-14T15:59:05;8.45;;;4.63;;
17618;SDS011;8928;51.678;6.074;2022-08-14T16:01:55;5.00;;;4.50;;
17618;SDS011;8928;51.678;6.074;2022-08-14T16:04:41;5.35;;;4.50;;
17618;SDS011;8928;51.678;6.074;2022-08-14T16:07:28;5.50;;;4.50;;
17618;SDS011;8928;51.678;6.074;2022-08-14T16:10:15;6.68;;;5.00;;
17618;SDS011;8928;51.678;6.074;2022-08-14T16:13:02;7.10;;;4.95;;
17618;SDS011;8928;51.678;6.074;2022-08-14T16:15:51;5.75;;;4.47;;
17618;SDS011;8928;51.678;6.074;2022-08-14T16:18:39;7.72;;;4.97;;
17618;SDS011;8928;51.678;6.074;2022-08-14T16:21:27;5.88;;;4.95;;
17618;SDS011;8928;51.678;6.074;2022-08-14T16:24:14;8.38;;;4.85;;
17618;SDS011;8928;51.678;6.074;2022-08-14T16:27:03;8.25;;;4.95;;
17618;SDS011;8928;51.678;6.074;2022-08-14T16:29:51;5.20;;;4.70;;
17618;SDS011;8928;51.678;6.074;2022-08-14T16:32:40;5.05;;;4.55;;
17618;SDS011;8928;51.678;6.074;2022-08-14T16:35:28;5.38;;;4.57;;
17618;SDS011;8928;51.678;6.074;2022-08-14T16:38:18;8.10;;;4.85;;
17618;SDS011;8928;51.678;6.074;2022-08-14T16:41:11;7.47;;;4.72;;
17618;SDS011;8928;51.678;6.074;2022-08-14T16:44:05;5.97;;;4.85;;
17618;SDS011;8928;51.678;6.074;2022-08-14T16:46:56;6.53;;;4.90;;
17618;SDS011;8928;51.678;6.074;2022-08-14T16:49:44;8.25;;;5.07;;
17618;SDS011;8928;51.678;6.074;2022-08-14T16:52:31;7.88;;;4.90;;
17618;SDS011;8928;51.678;6.074;2022-08-14T16:55:18;7.20;;;4.57;;
17618;SDS011;8928;51.678;6.074;2022-08-14T16:58:05;6.57;;;4.60;;
17618;SDS011;8928;51.678;6.074;2022-08-14T17:00:53;7.82;;;4.65;;
17618;SDS011;8928;51.678;6.074;2022-08-14T17:03:50;7.60;;;4.50;;
17618;SDS011;8928;51.678;6.074;2022-08-14T17:06:45;7.45;;;4.60;;
17618;SDS011;8928;51.678;6.074;2022-08-14T17:09:34;6.50;;;4.60;;
17618;SDS011;8928;51.678;6.074;2022-08-14T17:12:23;5.50;;;4.53;;